Time;durP1;ratioP1;P1;durP2;ratioP2;P2;SDS_P1;SDS_P2;PMS_P1;PMS_P2;Temp;Humidity;BMP_temperature;BMP_pressure;BME280_temperature;BME280_humidity;BME280_pressure;Samples;Min_cycle;Max_cycle;Signal;HPM_P1;HPM_P2
2023/07/08 00:04:58;;;;;;;12.65;3.92;;;;;;;;;;10434430;28;20048;-77
2023/07/08 00:10:04;;;;;;;7.80;3.85;;;;;;;;;;10427495;28;20407;-77
2023/07/08 00:15:12;;;;;;;10.43;4.32;;;;;;;;;;10423578;28;20067;-77
2023/07/08 00:20:20;;;;;;;8.55;3.67;;;;;;;;;;10423760;28;20055;-77
2023/07/08 00:25:31;;;;;;;9.43;4.47;;;;;;;;;;10421542;28;20525;-76
2023/07/08 00:30:42;;;;;;;10.48;4.25;;;;;;;;;;10425014;28;20049;-76
2023/07/08 00:35:54;;;;;;;13.27;4.13;;;;;;;;;;10420276;28;20040;-76
2023/07/08 00:41:03;;;;;;;7.60;3.83;;;;;;;;;;10422152;28;20045;-75
2023/07/08 00:46:17;;;;;;;9.77;5.15;;;;;;;;;;10425048;28;20045;-76
2023/07/08 00:51:34;;;;;;;9.90;4.28;;;;;;;;;;10423445;28;20049;-77
2023/07/08 00:56:48;;;;;;;8.23;3.33;;;;;;;;;;10432743;28;20506;-77
2023/07/08 01:02:04;;;;;;;8.85;4.00;;;;;;;;;;10424633;28;20328;-78
2023/07/08 01:07:21;;;;;;;7.75;3.92;;;;;;;;;;10422336;28;20103;-76
2023/07/08 01:12:28;;;;;;;10.25;4.03;;;;;;;;;;10425692;28;20057;-76
2023/07/08 01:17:34;;;;;;;10.25;3.95;;;;;;;;;;10419370;28;20162;-76
2023/07/08 01:22:46;;;;;;;8.70;4.10;;;;;;;;;;10423216;28;20033;-76
2023/07/08 01:28:08;;;;;;;8.43;3.80;;;;;;;;;;10426869;28;20139;-77
2023/07/08 01:33:18;;;;;;;9.55;4.13;;;;;;;;;;10428656;28;20046;-77
2023/07/08 01:38:31;;;;;;;11.32;4.60;;;;;;;;;;10436856;28;20148;-77
2023/07/08 01:43:45;;;;;;;8.43;3.80;;;;;;;;;;10432328;28;20132;-76
2023/07/08 01:48:55;;;;;;;11.13;4.80;;;;;;;;;;10433491;28;20033;-77
2023/07/08 01:54:06;;;;;;;8.52;3.97;;;;;;;;;;10429603;28;20155;-77
2023/07/08 01:59:11;;;;;;;10.02;4.55;;;;;;;;;;10433129;28;20422;-76
2023/07/08 02:04:19;;;;;;;8.05;4.20;;;;;;;;;;10426622;28;20048;-77
2023/07/08 02:09:29;;;;;;;9.45;4.28;;;;;;;;;;10425377;28;20037;-77
2023/07/08 02:14:35;;;;;;;10.20;4.40;;;;;;;;;;10439345;28;20433;-77
2023/07/08 02:19:39;;;;;;;14.07;4.72;;;;;;;;;;10421488;28;20199;-77
2023/07/08 02:24:57;;;;;;;10.05;4.50;;;;;;;;;;10427982;28;20045;-76
2023/07/08 02:30:05;;;;;;;11.23;4.22;;;;;;;;;;10425910;28;20033;-77
2023/07/08 02:35:15;;;;;;;9.75;4.13;;;;;;;;;;10430706;28;20463;-77
2023/07/08 02:40:20;;;;;;;13.10;4.45;;;;;;;;;;10430323;28;20123;-77
2023/07/08 02:45:25;;;;;;;12.07;4.68;;;;;;;;;;10424088;28;20056;-76
2023/07/08 02:50:34;;;;;;;10.18;4.53;;;;;;;;;;10424690;28;20049;-75
2023/07/08 02:55:51;;;;;;;9.57;4.55;;;;;;;;;;10421743;28;20114;-77
2023/07/08 03:01:11;;;;;;;10.10;4.40;;;;;;;;;;10422005;28;20041;-77
2023/07/08 03:06:41;;;;;;;11.80;4.75;;;;;;;;;;10423254;28;20054;-77
2023/07/08 03:11:50;;;;;;;11.45;4.88;;;;;;;;;;10397887;28;20059;-76
2023/07/08 03:16:56;;;;;;;12.73;5.57;;;;;;;;;;10428168;28;20044;-76
2023/07/08 03:22:02;;;;;;;10.70;4.75;;;;;;;;;;10425938;28;20041;-77
2023/07/08 03:27:26;;;;;;;8.70;4.20;;;;;;;;;;10414266;28;20057;-77
2023/07/08 03:32:37;;;;;;;9.30;4.53;;;;;;;;;;10462871;28;21737;-77
2023/07/08 03:37:45;;;;;;;10.35;4.28;;;;;;;;;;10427999;28;20061;-77
2023/07/08 03:42:52;;;;;;;10.15;4.10;;;;;;;;;;10425430;28;20053;-77
2023/07/08 03:48:05;;;;;;;9.38;4.63;;;;;;;;;;10426437;28;20064;-77
2023/07/08 03:53:22;;;;;;;8.65;4.13;;;;;;;;;;10426003;28;20775;-77
2023/07/08 04:04:05;;;;;;;11.45;4.28;;;;;;;;;;10424369;28;20052;-76
2023/07/08 04:09:14;;;;;;;11.18;4.22;;;;;;;;;;10427952;28;20051;-76
2023/07/08 04:14:42;;;;;;;9.57;4.50;;;;;;;;;;10429326;28;20564;-77
2023/07/08 04:25:12;;;;;;;9.05;4.13;;;;;;;;;;10429010;28;20077;-78
2023/07/08 04:30:22;;;;;;;9.52;3.78;;;;;;;;;;10426668;28;20077;-77
2023/07/08 04:35:32;;;;;;;11.27;4.57;;;;;;;;;;10422220;28;20170;-77
2023/07/08 04:40:40;;;;;;;11.73;4.90;;;;;;;;;;10424525;28;20521;-77
2023/07/08 04:46:16;;;;;;;12.02;4.25;;;;;;;;;;10433560;28;20059;-77
2023/07/08 04:51:26;;;;;;;13.18;4.90;;;;;;;;;;10424065;28;20379;-76
2023/07/08 04:56:32;;;;;;;;;;;;;;;;;;10429904;28;22423;-76
2023/07/08 05:01:47;;;;;;;11.40;4.55;;;;;;;;;;10432389;28;19932;-76
2023/07/08 05:07:00;;;;;;;10.02;4.20;;;;;;;;;;10437693;28;20057;-77
2023/07/08 05:12:06;;;;;;;11.67;4.50;;;;;;;;;;10437625;28;20061;-76
2023/07/08 05:17:15;;;;;;;10.73;4.90;;;;;;;;;;10437849;28;20049;-77
2023/07/08 05:22:27;;;;;;;9.90;4.88;;;;;;;;;;10420029;28;20045;-77
2023/07/08 05:27:36;;;;;;;10.10;4.70;;;;;;;;;;10427442;28;20628;-77
2023/07/08 05:32:55;;;;;;;12.27;5.38;;;;;;;;;;10430365;28;20122;-77
2023/07/08 05:38:03;;;;;;;12.73;5.47;;;;;;;;;;10433368;28;20102;-77
2023/07/08 05:48:39;;;;;;;11.15;4.65;;;;;;;;;;10430332;28;20049;-77
2023/07/08 05:53:48;;;;;;;10.18;4.60;;;;;;;;;;10433293;28;20131;-78
2023/07/08 05:58:53;;;;;;;9.20;4.70;;;;;;;;;;10433295;28;20045;-78
2023/07/08 06:04:23;;;;;;;11.88;5.80;;;;;;;;;;10429891;28;20553;-78
2023/07/08 06:09:45;;;;;;;11.73;5.53;;;;;;;;;;10439574;28;20736;-77
2023/07/08 06:14:53;;;;;;;12.23;4.88;;;;;;;;;;10427905;28;20418;-77
2023/07/08 06:25:50;;;;;;;11.98;5.20;;;;;;;;;;10422598;28;20045;-77
2023/07/08 06:30:57;;;;;;;12.05;5.25;;;;;;;;;;10429091;28;20406;-76
2023/07/08 06:36:03;;;;;;;11.77;5.00;;;;;;;;;;10425971;28;20107;-77
2023/07/08 06:41:20;;;;;;;11.32;4.97;;;;;;;;;;10430086;28;20052;-84
2023/07/08 06:46:34;;;;;;;10.88;5.18;;;;;;;;;;10427235;28;20047;-78
2023/07/08 06:51:46;;;;;;;12.18;5.30;;;;;;;;;;10433656;28;20122;-78
2023/07/08 06:56:53;;;;;;;10.20;4.93;;;;;;;;;;10428694;28;20045;-76
2023/07/08 07:02:00;;;;;;;14.70;5.40;;;;;;;;;;10425351;28;20032;-77
2023/07/08 07:07:07;;;;;;;11.13;4.88;;;;;;;;;;10423926;28;20156;-78
2023/07/08 07:12:15;;;;;;;12.50;5.28;;;;;;;;;;10423631;28;20053;-76
2023/07/08 07:17:22;;;;;;;9.10;4.68;;;;;;;;;;10418948;28;20041;-76
2023/07/08 07:22:38;;;;;;;12.07;5.78;;;;;;;;;;10419327;28;21949;-75
2023/07/08 07:27:44;;;;;;;14.38;5.68;;;;;;;;;;10422569;28;20180;-75
2023/07/08 07:32:50;;;;;;;16.38;6.82;;;;;;;;;;10420206;28;20053;-76
2023/07/08 07:38:02;;;;;;;15.48;5.95;;;;;;;;;;10421782;28;20057;-78
2023/07/08 07:43:11;;;;;;;12.77;5.53;;;;;;;;;;10430627;28;20041;-77
2023/07/08 07:48:16;;;;;;;16.67;7.65;;;;;;;;;;10426008;28;20564;-76
2023/07/08 07:53:24;;;;;;;12.95;6.03;;;;;;;;;;10428909;28;20053;-77
2023/07/08 07:58:34;;;;;;;18.48;7.07;;;;;;;;;;10421534;28;20599;-78
2023/07/08 08:03:42;;;;;;;13.93;6.50;;;;;;;;;;10414776;28;20538;-77
2023/07/08 08:08:45;;;;;;;16.33;6.30;;;;;;;;;;10418419;28;20053;-77
2023/07/08 08:13:53;;;;;;;11.55;6.10;;;;;;;;;;10420665;28;20512;-77
2023/07/08 08:19:08;;;;;;;10.73;5.50;;;;;;;;;;10425573;28;20161;-77
2023/07/08 08:24:16;;;;;;;13.27;6.07;;;;;;;;;;10405160;28;20045;-79
2023/07/08 08:29:24;;;;;;;13.30;6.20;;;;;;;;;;10420695;28;20565;-79
2023/07/08 08:34:39;;;;;;;8.05;4.28;;;;;;;;;;10436083;28;20111;-78
2023/07/08 08:39:50;;;;;;;13.82;6.05;;;;;;;;;;10430420;28;20114;-79
2023/07/08 08:45:16;;;;;;;13.00;6.10;;;;;;;;;;10434590;28;20367;-78
2023/07/08 08:50:57;;;;;;;10.70;6.22;;;;;;;;;;10428437;28;20118;-79
2023/07/08 09:08:31;;;;;;;12.13;5.57;;;;;;;;;;10331554;28;20054;-74
2023/07/08 09:13:36;;;;;;;13.43;6.55;;;;;;;;;;10426373;28;20527;-75
2023/07/08 09:18:57;;;;;;;13.15;6.63;;;;;;;;;;10445783;28;20056;-74
2023/07/08 09:24:21;;;;;;;12.77;6.38;;;;;;;;;;10436569;28;20119;-75
2023/07/08 09:29:32;;;;;;;12.48;6.07;;;;;;;;;;10428982;28;20057;-76
2023/07/08 09:34:42;;;;;;;17.20;6.15;;;;;;;;;;10418324;28;20036;-76
2023/07/08 09:39:58;;;;;;;9.48;5.57;;;;;;;;;;10431309;28;20053;-75
2023/07/08 09:45:13;;;;;;;9.80;5.70;;;;;;;;;;10425594;28;20045;-75
2023/07/08 09:50:21;;;;;;;12.57;6.60;;;;;;;;;;10411531;28;20502;-75
2023/07/08 09:55:33;;;;;;;12.35;5.70;;;;;;;;;;10400742;28;20049;-76
2023/07/08 10:00:40;;;;;;;;;;;;;;;;;;10430857;28;20053;-75
2023/07/08 10:05:57;;;;;;;13.40;6.28;;;;;;;;;;10432611;28;20441;-75
2023/07/08 10:11:04;;;;;;;14.10;5.72;;;;;;;;;;10401272;28;20131;-75
2023/07/08 10:16:27;;;;;;;10.20;6.43;;;;;;;;;;10416913;28;20202;-75
2023/07/08 10:21:38;;;;;;;12.77;6.30;;;;;;;;;;10433687;28;20557;-76
2023/07/08 10:32:22;;;;;;;12.57;6.22;;;;;;;;;;10532224;27;21029;-76
2023/07/08 10:37:29;;;;;;;9.80;6.32;;;;;;;;;;10501976;28;20059;-76
2023/07/08 10:42:39;;;;;;;9.80;5.70;;;;;;;;;;10499041;28;20052;-76
2023/07/08 10:47:54;;;;;;;7.95;5.63;;;;;;;;;;10490814;28;20056;-76
2023/07/08 10:53:01;;;;;;;9.27;5.53;;;;;;;;;;10502627;28;20056;-75
2023/07/08 10:58:14;;;;;;;9.00;6.07;;;;;;;;;;10498347;28;20043;-77
2023/07/08 11:03:38;;;;;;;9.60;6.20;;;;;;;;;;10504643;28;20113;-76
2023/07/08 11:08:43;;;;;;;8.48;6.22;;;;;;;;;;10506368;28;20055;-76
2023/07/08 11:13:48;;;;;;;8.23;6.00;;;;;;;;;;10494754;28;20063;-76
2023/07/08 11:18:54;;;;;;;7.85;6.05;;;;;;;;;;10493616;28;20060;-77
2023/07/08 11:24:00;;;;;;;10.23;7.55;;;;;;;;;;10494791;28;20044;-75
2023/07/08 11:29:04;;;;;;;8.75;6.13;;;;;;;;;;10493980;28;20055;-77
2023/07/08 11:34:09;;;;;;;8.63;6.35;;;;;;;;;;10495273;28;20553;-75
2023/07/08 11:39:29;;;;;;;8.52;6.03;;;;;;;;;;10490105;28;20322;-77
2023/07/08 11:44:34;;;;;;;9.45;6.50;;;;;;;;;;10469707;28;20051;-77
2023/07/08 11:49:41;;;;;;;9.02;6.47;;;;;;;;;;10468912;28;20127;-76
2023/07/08 11:54:50;;;;;;;8.48;5.97;;;;;;;;;;10476244;28;20055;-76
2023/07/08 12:00:06;;;;;;;9.90;6.20;;;;;;;;;;10477882;28;20053;-76
2023/07/08 12:05:14;;;;;;;8.32;5.68;;;;;;;;;;10467810;28;20131;-76
2023/07/08 12:10:18;;;;;;;8.47;5.50;;;;;;;;;;10466117;28;20033;-76
2023/07/08 12:15:23;;;;;;;11.20;5.70;;;;;;;;;;10466214;28;20306;-76
2023/07/08 12:20:29;;;;;;;10.15;5.47;;;;;;;;;;10475552;28;20104;-75
2023/07/08 12:25:34;;;;;;;10.95;7.35;;;;;;;;;;10468239;28;20048;-76
2023/07/08 12:30:37;;;;;;;9.30;5.00;;;;;;;;;;10469808;28;20120;-77
2023/07/08 12:35:42;;;;;;;9.82;5.55;;;;;;;;;;10471263;28;20127;-75
2023/07/08 12:40:45;;;;;;;9.00;5.53;;;;;;;;;;10453457;28;20427;-76
2023/07/08 12:45:48;;;;;;;11.25;5.30;;;;;;;;;;10477840;28;20055;-76
2023/07/08 12:50:53;;;;;;;9.77;5.50;;;;;;;;;;10474640;28;20052;-76
2023/07/08 12:55:58;;;;;;;9.95;5.15;;;;;;;;;;10464805;28;20154;-76
2023/07/08 13:01:03;;;;;;;10.40;4.82;;;;;;;;;;10458284;28;20048;-75
2023/07/08 13:06:10;;;;;;;9.15;4.97;;;;;;;;;;10463321;28;20033;-75
2023/07/08 13:11:14;;;;;;;8.35;5.00;;;;;;;;;;10459304;28;20047;-76
2023/07/08 13:16:18;;;;;;;10.32;4.95;;;;;;;;;;10463353;28;20041;-76
2023/07/08 13:21:24;;;;;;;7.97;4.40;;;;;;;;;;10467124;28;20036;-76
2023/07/08 13:26:28;;;;;;;11.10;4.70;;;;;;;;;;10467177;28;20045;-75
2023/07/08 13:31:35;;;;;;;9.93;5.40;;;;;;;;;;10467436;28;20588;-77
2023/07/08 13:36:41;;;;;;;8.65;4.65;;;;;;;;;;10470902;28;20057;-76
2023/07/08 13:41:44;;;;;;;9.05;4.68;;;;;;;;;;10470116;28;20041;-76
2023/07/08 13:46:52;;;;;;;9.38;5.28;;;;;;;;;;10460528;28;20456;-77
2023/07/08 13:52:06;;;;;;;10.80;5.20;;;;;;;;;;10463256;28;20609;-77
2023/07/08 13:57:10;;;;;;;12.05;5.10;;;;;;;;;;10461214;28;20046;-75
2023/07/08 14:02:17;;;;;;;9.65;4.82;;;;;;;;;;10458534;28;20048;-77
2023/07/08 14:07:23;;;;;;;9.15;4.07;;;;;;;;;;10462212;28;20609;-76
2023/07/08 14:12:25;;;;;;;9.00;4.70;;;;;;;;;;10461423;28;20450;-76
2023/07/08 14:17:28;;;;;;;10.18;4.63;;;;;;;;;;10467400;28;20099;-76
2023/07/08 14:22:33;;;;;;;9.77;4.68;;;;;;;;;;10460269;28;20045;-77
2023/07/08 14:27:36;;;;;;;9.63;5.35;;;;;;;;;;10466032;28;20535;-75
2023/07/08 14:32:39;;;;;;;9.95;5.07;;;;;;;;;;10466514;28;20048;-75
2023/07/08 14:37:43;;;;;;;9.90;4.38;;;;;;;;;;10463934;28;20059;-75
2023/07/08 14:42:46;;;;;;;8.65;4.65;;;;;;;;;;10463132;28;20040;-76
2023/07/08 14:47:54;;;;;;;8.20;3.95;;;;;;;;;;10454694;28;20040;-75
2023/07/08 14:52:58;;;;;;;7.28;3.80;;;;;;;;;;10459074;28;20071;-74
2023/07/08 14:58:02;;;;;;;10.40;4.45;;;;;;;;;;10457490;28;20037;-75
2023/07/08 15:03:05;;;;;;;9.15;3.78;;;;;;;;;;10456930;28;20048;-75
2023/07/08 15:08:10;;;;;;;9.95;4.05;;;;;;;;;;10462035;28;20104;-76
2023/07/08 15:13:12;;;;;;;11.65;4.13;;;;;;;;;;10464173;28;20045;-76
2023/07/08 15:18:17;;;;;;;7.50;4.20;;;;;;;;;;10470255;28;20052;-74
2023/07/08 15:23:21;;;;;;;8.48;3.78;;;;;;;;;;10471482;28;20119;-87
2023/07/08 15:28:35;;;;;;;7.68;3.35;;;;;;;;;;10471464;28;20056;-79
2023/07/08 15:33:38;;;;;;;7.28;3.40;;;;;;;;;;10467287;28;20520;-80
2023/07/08 15:38:42;;;;;;;7.15;3.55;;;;;;;;;;10467260;28;20048;-79
2023/07/08 15:43:45;;;;;;;7.80;2.85;;;;;;;;;;10468475;28;20615;-79
2023/07/08 15:48:48;;;;;;;8.27;2.83;;;;;;;;;;10466219;28;20044;-80
2023/07/08 15:53:53;;;;;;;6.25;2.70;;;;;;;;;;10448324;28;20044;-79
2023/07/08 15:58:56;;;;;;;6.32;3.25;;;;;;;;;;10467251;28;20098;-79
2023/07/08 16:03:59;;;;;;;8.63;3.20;;;;;;;;;;10453990;28;20056;-79
2023/07/08 16:09:03;;;;;;;6.03;2.60;;;;;;;;;;10469919;28;20127;-80
2023/07/08 16:14:10;;;;;;;7.97;4.07;;;;;;;;;;10479895;28;20059;-80
2023/07/08 16:19:14;;;;;;;7.88;3.35;;;;;;;;;;10466912;28;20481;-80
2023/07/08 16:24:36;;;;;;;10.27;3.17;;;;;;;;;;10446107;28;20051;-80
2023/07/08 16:29:39;;;;;;;10.90;3.72;;;;;;;;;;10464969;28;20074;-80
2023/07/08 16:34:42;;;;;;;9.18;3.58;;;;;;;;;;10466557;28;20063;-79
2023/07/08 16:39:47;;;;;;;8.95;3.08;;;;;;;;;;10462732;28;20068;-80
2023/07/08 16:44:50;;;;;;;8.45;3.47;;;;;;;;;;10469380;28;20561;-81
2023/07/08 16:49:53;;;;;;;10.13;3.30;;;;;;;;;;10456212;28;20133;-80
2023/07/08 16:54:57;;;;;;;8.07;3.45;;;;;;;;;;10492587;28;20036;-79
2023/07/08 17:00:00;;;;;;;7.03;3.15;;;;;;;;;;10474735;28;20151;-79
2023/07/08 17:05:04;;;;;;;7.28;3.20;;;;;;;;;;10482571;28;20048;-80
2023/07/08 17:10:10;;;;;;;7.93;3.40;;;;;;;;;;10470743;28;20044;-79
2023/07/08 17:15:14;;;;;;;9.63;3.45;;;;;;;;;;10464531;28;20491;-79
2023/07/08 17:20:19;;;;;;;10.77;4.43;;;;;;;;;;10472054;28;20121;-79
2023/07/08 17:25:24;;;;;;;9.45;3.47;;;;;;;;;;10463156;28;20501;-80
2023/07/08 17:30:27;;;;;;;9.25;3.70;;;;;;;;;;10462008;28;20762;-79
2023/07/08 17:35:30;;;;;;;11.50;3.60;;;;;;;;;;10461715;28;20109;-79
2023/07/08 17:40:34;;;;;;;9.40;3.45;;;;;;;;;;10466283;28;20116;-79
2023/07/08 17:45:40;;;;;;;8.45;3.47;;;;;;;;;;10471506;28;20072;-79
2023/07/08 17:50:43;;;;;;;10.43;4.72;;;;;;;;;;10466214;28;20052;-80
2023/07/08 17:55:49;;;;;;;6.22;3.13;;;;;;;;;;10474919;28;20387;-80
2023/07/08 18:00:52;;;;;;;8.00;3.15;;;;;;;;;;10467927;28;20615;-80
2023/07/08 18:05:55;;;;;;;9.25;3.42;;;;;;;;;;10439686;28;20049;-79
2023/07/08 18:10:59;;;;;;;11.05;4.13;;;;;;;;;;10461185;28;20044;-79
2023/07/08 18:16:02;;;;;;;9.68;3.33;;;;;;;;;;10443526;28;20187;-79
2023/07/08 18:21:10;;;;;;;7.53;3.83;;;;;;;;;;10460464;28;20075;-79
2023/07/08 18:26:18;;;;;;;8.70;3.63;;;;;;;;;;10464200;28;20060;-80
2023/07/08 18:31:22;;;;;;;8.50;4.22;;;;;;;;;;10462004;28;20090;-80
2023/07/08 18:36:25;;;;;;;12.40;4.28;;;;;;;;;;10471747;28;20048;-80
2023/07/08 18:41:35;;;;;;;9.77;3.75;;;;;;;;;;10469459;28;20037;-80
2023/07/08 18:46:37;;;;;;;10.45;4.25;;;;;;;;;;10469269;28;20478;-81
2023/07/08 18:51:40;;;;;;;;;;;;;;;;;;10470734;28;20048;-81
2023/07/08 18:56:44;;;;;;;10.90;3.63;;;;;;;;;;10467592;28;19927;-80
2023/07/08 19:01:48;;;;;;;8.95;4.28;;;;;;;;;;10468556;28;20298;-81
2023/07/08 19:06:53;;;;;;;10.98;4.72;;;;;;;;;;10468363;28;20040;-80
2023/07/08 19:11:58;;;;;;;13.23;5.32;;;;;;;;;;10469933;28;20606;-79
2023/07/08 19:17:01;;;;;;;13.88;5.55;;;;;;;;;;10467653;28;20045;-80
2023/07/08 19:22:05;;;;;;;10.93;4.53;;;;;;;;;;10468051;28;20047;-80
2023/07/08 19:27:14;;;;;;;11.65;4.57;;;;;;;;;;10480471;28;20120;-81
2023/07/08 19:32:18;;;;;;;13.02;5.28;;;;;;;;;;10468131;28;20657;-81
2023/07/08 19:37:21;;;;;;;13.02;5.60;;;;;;;;;;10475318;28;20123;-80
2023/07/08 19:42:27;;;;;;;20.75;6.68;;;;;;;;;;10478458;28;20040;-80
2023/07/08 19:47:30;;;;;;;13.00;5.65;;;;;;;;;;10470074;28;20170;-79
2023/07/08 19:52:34;;;;;;;16.45;5.53;;;;;;;;;;10467328;28;20058;-79
2023/07/08 19:57:36;;;;;;;;;;;;;;;;;;10471799;28;20044;-80
2023/07/08 20:02:41;;;;;;;13.33;4.83;;;;;;;;;;10468865;28;19928;-80
2023/07/08 20:07:44;;;;;;;15.00;5.90;;;;;;;;;;10468649;28;20299;-84
2023/07/08 20:12:46;;;;;;;12.77;5.30;;;;;;;;;;10473944;28;20044;-80
2023/07/08 20:17:51;;;;;;;15.10;6.20;;;;;;;;;;10474414;28;20040;-82
2023/07/08 20:22:55;;;;;;;16.70;5.28;;;;;;;;;;10471565;28;20374;-79
2023/07/08 20:27:57;;;;;;;13.40;6.20;;;;;;;;;;10473197;28;20372;-78
2023/07/08 20:33:01;;;;;;;16.48;7.13;;;;;;;;;;10473621;28;20124;-79
2023/07/08 20:38:04;;;;;;;16.48;6.15;;;;;;;;;;10464206;28;20075;-80
2023/07/08 20:43:07;;;;;;;;;;;;;;;;;;10462883;28;20522;-79
2023/07/08 20:48:14;;;;;;;18.23;6.47;;;;;;;;;;10461645;28;19927;-80
2023/07/08 20:53:20;;;;;;;20.95;10.63;;;;;;;;;;10465677;28;20048;-78
2023/07/08 20:58:23;;;;;;;15.18;7.18;;;;;;;;;;10465126;28;20050;-79
2023/07/08 21:03:27;;;;;;;17.75;7.85;;;;;;;;;;10464231;28;20464;-79
2023/07/08 21:08:34;;;;;;;12.45;6.68;;;;;;;;;;10457026;28;20045;-79
2023/07/08 21:13:37;;;;;;;13.65;5.93;;;;;;;;;;10473280;28;20137;-76
2023/07/08 21:18:42;;;;;;;16.50;6.22;;;;;;;;;;10453769;28;20089;-78
2023/07/08 21:23:46;;;;;;;17.83;6.32;;;;;;;;;;10480385;28;20506;-77
2023/07/08 21:28:52;;;;;;;10.15;4.05;;;;;;;;;;10465293;28;20316;-79
2023/07/08 21:33:56;;;;;;;12.18;4.85;;;;;;;;;;10462319;28;20058;-79
2023/07/08 21:39:00;;;;;;;13.82;5.18;;;;;;;;;;10447455;28;20048;-80
2023/07/08 21:44:03;;;;;;;11.15;4.43;;;;;;;;;;10463885;28;20037;-79
2023/07/08 21:49:08;;;;;;;14.30;6.38;;;;;;;;;;10461445;28;20143;-78
2023/07/08 21:54:12;;;;;;;10.57;6.05;;;;;;;;;;10444701;28;20481;-79
2023/07/08 21:59:15;;;;;;;11.43;5.22;;;;;;;;;;10466569;28;20072;-80
2023/07/08 22:04:21;;;;;;;10.82;5.00;;;;;;;;;;10449740;28;20053;-79
2023/07/08 22:09:24;;;;;;;13.93;5.30;;;;;;;;;;10469825;28;20048;-79
2023/07/08 22:14:28;;;;;;;12.00;4.88;;;;;;;;;;10476052;28;20044;-77
2023/07/08 22:19:32;;;;;;;11.15;5.90;;;;;;;;;;10474023;28;20110;-78
2023/07/08 22:24:35;;;;;;;13.27;6.15;;;;;;;;;;10473210;28;20621;-79
2023/07/08 22:29:38;;;;;;;10.90;5.25;;;;;;;;;;10469312;28;20055;-78
2023/07/08 22:34:43;;;;;;;12.95;5.05;;;;;;;;;;10466357;28;20126;-78
2023/07/08 22:39:46;;;;;;;11.50;5.28;;;;;;;;;;10469144;28;20646;-79
2023/07/08 22:44:49;;;;;;;14.10;5.22;;;;;;;;;;10467155;28;20141;-79
2023/07/08 22:49:53;;;;;;;12.50;5.00;;;;;;;;;;10465447;28;20128;-78
2023/07/08 22:54:57;;;;;;;13.55;5.05;;;;;;;;;;10469196;28;20048;-86
2023/07/08 23:00:00;;;;;;;14.77;5.03;;;;;;;;;;10475834;28;20049;-85
2023/07/08 23:05:05;;;;;;;10.90;5.80;;;;;;;;;;10482213;28;20567;-84
2023/07/08 23:10:11;;;;;;;13.45;5.43;;;;;;;;;;10475129;28;20094;-84
2023/07/08 23:15:14;;;;;;;10.20;4.93;;;;;;;;;;10469227;28;20063;-86
2023/07/08 23:20:19;;;;;;;12.93;5.63;;;;;;;;;;10467898;28;20386;-85
2023/07/08 23:25:22;;;;;;;13.60;5.80;;;;;;;;;;10466186;28;20183;-83
2023/07/08 23:30:24;;;;;;;13.23;6.25;;;;;;;;;;10463696;28;20585;-84
2023/07/08 23:35:29;;;;;;;13.23;5.53;;;;;;;;;;10448235;28;20059;-83
2023/07/08 23:40:31;;;;;;;12.40;6.18;;;;;;;;;;10465692;28;20059;-84
2023/07/08 23:45:34;;;;;;;12.57;6.28;;;;;;;;;;10488089;28;20060;-83
2023/07/08 23:50:40;;;;;;;14.15;6.40;;;;;;;;;;10473704;28;20402;-82
2023/07/08 23:55:46;;;;;;;14.75;6.28;;;;;;;;;;10481683;28;20119;-84
